sensor_id;sensor_type;location;lat;lon;timestamp;P1;durP1;ratioP1;P2;durP2;ratioP2
12880;SDS011;6508;53.786;9.996;2022-08-05T00:00:14;9.35;;;8.50;;
12880;SDS011;6508;53.786;9.996;2022-08-05T00:02:43;11.40;;;9.15;;
12880;SDS011;6508;53.786;9.996;2022-08-05T00:05:17;9.60;;;8.35;;
12880;SDS011;6508;53.786;9.996;2022-08-05T00:08:06;9.35;;;8.50;;
12880;SDS011;6508;53.786;9.996;2022-08-05T00:10:56;9.07;;;8.13;;
12880;SDS011;6508;53.786;9.996;2022-08-05T00:13:26;9.20;;;8.25;;
12880;SDS011;6508;53.786;9.996;2022-08-05T00:16:06;8.65;;;7.68;;
12880;SDS011;6508;53.786;9.996;2022-08-05T00:18:38;7.70;;;7.05;;
12880;SDS011;6508;53.786;9.996;2022-08-05T00:21:10;8.20;;;7.50;;
12880;SDS011;6508;53.786;9.996;2022-08-05T00:23:40;7.53;;;6.93;;
12880;SDS011;6508;53.786;9.996;2022-08-05T00:26:19;7.25;;;6.78;;
12880;SDS011;6508;53.786;9.996;2022-08-05T00:28:48;7.45;;;6.70;;
12880;SDS011;6508;53.786;9.996;2022-08-05T00:31:16;7.03;;;6.10;;
12880;SDS011;6508;53.786;9.996;2022-08-05T00:34:04;6.75;;;6.15;;
12880;SDS011;6508;53.786;9.996;2022-08-05T00:36:52;6.50;;;6.13;;
12880;SDS011;6508;53.786;9.996;2022-08-05T00:39:39;6.68;;;6.20;;
12880;SDS011;6508;53.786;9.996;2022-08-05T00:42:32;7.60;;;7.10;;
12880;SDS011;6508;53.786;9.996;2022-08-05T00:45:03;7.13;;;6.57;;
12880;SDS011;6508;53.786;9.996;2022-08-05T00:47:37;7.35;;;6.93;;
12880;SDS011;6508;53.786;9.996;2022-08-05T00:50:25;8.95;;;8.35;;
12880;SDS011;6508;53.786;9.996;2022-08-05T00:52:53;9.38;;;8.77;;
12880;SDS011;6508;53.786;9.996;2022-08-05T00:55:21;8.13;;;7.68;;
12880;SDS011;6508;53.786;9.996;2022-08-05T00:58:10;10.35;;;9.65;;
12880;SDS011;6508;53.786;9.996;2022-08-05T01:00:39;14.25;;;13.43;;
12880;SDS011;6508;53.786;9.996;2022-08-05T01:03:07;7.30;;;6.90;;
12880;SDS011;6508;53.786;9.996;2022-08-05T01:05:47;12.45;;;11.85;;
12880;SDS011;6508;53.786;9.996;2022-08-05T01:08:16;19.85;;;18.65;;
12880;SDS011;6508;53.786;9.996;2022-08-05T01:11:06;19.35;;;18.17;;
12880;SDS011;6508;53.786;9.996;2022-08-05T01:13:46;22.35;;;20.98;;
12880;SDS011;6508;53.786;9.996;2022-08-05T01:16:26;14.95;;;14.23;;
12880;SDS011;6508;53.786;9.996;2022-08-05T01:18:59;23.85;;;22.52;;
12880;SDS011;6508;53.786;9.996;2022-08-05T01:21:45;24.48;;;23.30;;
12880;SDS011;6508;53.786;9.996;2022-08-05T01:24:29;17.20;;;16.33;;
12880;SDS011;6508;53.786;9.996;2022-08-05T01:27:08;16.58;;;15.55;;
12880;SDS011;6508;53.786;9.996;2022-08-05T01:29:55;14.82;;;14.02;;
12880;SDS011;6508;53.786;9.996;2022-08-05T01:32:24;18.30;;;17.20;;
12880;SDS011;6508;53.786;9.996;2022-08-05T01:34:53;21.90;;;20.88;;
12880;SDS011;6508;53.786;9.996;2022-08-05T01:37:27;21.50;;;20.30;;
12880;SDS011;6508;53.786;9.996;2022-08-05T01:40:10;22.02;;;20.83;;
12880;SDS011;6508;53.786;9.996;2022-08-05T01:42:43;19.60;;;18.65;;
12880;SDS011;6508;53.786;9.996;2022-08-05T01:45:13;27.25;;;25.92;;
12880;SDS011;6508;53.786;9.996;2022-08-05T01:47:41;21.60;;;20.52;;
12880;SDS011;6508;53.786;9.996;2022-08-05T01:50:14;28.35;;;26.83;;
12880;SDS011;6508;53.786;9.996;2022-08-05T01:52:55;29.45;;;28.00;;
12880;SDS011;6508;53.786;9.996;2022-08-05T01:55:25;22.65;;;21.38;;
12880;SDS011;6508;53.786;9.996;2022-08-05T01:57:56;20.05;;;18.95;;
12880;SDS011;6508;53.786;9.996;2022-08-05T02:00:42;19.95;;;18.77;;
12880;SDS011;6508;53.786;9.996;2022-08-05T02:03:12;19.10;;;18.15;;
12880;SDS011;6508;53.786;9.996;2022-08-05T02:05:57;24.88;;;23.73;;
12880;SDS011;6508;53.786;9.996;2022-08-05T02:08:26;24.55;;;23.42;;
12880;SDS011;6508;53.786;9.996;2022-08-05T02:10:58;19.67;;;18.52;;
12880;SDS011;6508;53.786;9.996;2022-08-05T02:13:32;21.08;;;20.08;;
12880;SDS011;6508;53.786;9.996;2022-08-05T02:16:22;18.92;;;17.98;;
12880;SDS011;6508;53.786;9.996;2022-08-05T02:18:55;16.10;;;15.25;;
12880;SDS011;6508;53.786;9.996;2022-08-05T02:21:27;18.00;;;16.80;;
12880;SDS011;6508;53.786;9.996;2022-08-05T02:24:10;11.52;;;10.90;;
12880;SDS011;6508;53.786;9.996;2022-08-05T02:26:49;9.75;;;9.15;;
12880;SDS011;6508;53.786;9.996;2022-08-05T02:29:21;11.88;;;7.85;;
12880;SDS011;6508;53.786;9.996;2022-08-05T02:32:11;9.10;;;8.65;;
12880;SDS011;6508;53.786;9.996;2022-08-05T02:34:49;8.98;;;8.38;;
12880;SDS011;6508;53.786;9.996;2022-08-05T02:37:20;9.43;;;7.80;;
12880;SDS011;6508;53.786;9.996;2022-08-05T02:39:50;7.95;;;7.55;;
12880;SDS011;6508;53.786;9.996;2022-08-05T02:42:18;7.50;;;6.97;;
12880;SDS011;6508;53.786;9.996;2022-08-05T02:44:51;7.82;;;7.38;;
12880;SDS011;6508;53.786;9.996;2022-08-05T02:47:21;9.48;;;8.65;;
12880;SDS011;6508;53.786;9.996;2022-08-05T02:50:02;7.22;;;6.82;;
12880;SDS011;6508;53.786;9.996;2022-08-05T02:52:32;6.97;;;6.57;;
12880;SDS011;6508;53.786;9.996;2022-08-05T02:55:01;8.13;;;7.45;;
12880;SDS011;6508;53.786;9.996;2022-08-05T02:57:32;7.45;;;6.95;;
12880;SDS011;6508;53.786;9.996;2022-08-05T03:00:20;7.07;;;6.63;;
12880;SDS011;6508;53.786;9.996;2022-08-05T03:02:52;7.57;;;7.07;;
12880;SDS011;6508;53.786;9.996;2022-08-05T03:05:20;7.28;;;6.68;;
12880;SDS011;6508;53.786;9.996;2022-08-05T03:08:08;8.30;;;7.75;;
12880;SDS011;6508;53.786;9.996;2022-08-05T03:10:41;7.60;;;7.07;;
12880;SDS011;6508;53.786;9.996;2022-08-05T03:13:29;7.72;;;7.22;;
12880;SDS011;6508;53.786;9.996;2022-08-05T03:16:16;7.55;;;7.18;;
12880;SDS011;6508;53.786;9.996;2022-08-05T03:18:47;8.40;;;7.80;;
12880;SDS011;6508;53.786;9.996;2022-08-05T03:21:15;6.00;;;5.43;;
12880;SDS011;6508;53.786;9.996;2022-08-05T03:23:43;6.57;;;6.13;;
12880;SDS011;6508;53.786;9.996;2022-08-05T03:26:11;6.50;;;6.00;;
12880;SDS011;6508;53.786;9.996;2022-08-05T03:28:57;7.65;;;7.05;;
12880;SDS011;6508;53.786;9.996;2022-08-05T03:31:26;7.22;;;6.57;;
12880;SDS011;6508;53.786;9.996;2022-08-05T03:34:15;7.55;;;6.88;;
12880;SDS011;6508;53.786;9.996;2022-08-05T03:36:44;6.82;;;6.22;;
12880;SDS011;6508;53.786;9.996;2022-08-05T03:39:12;7.63;;;6.75;;
12880;SDS011;6508;53.786;9.996;2022-08-05T03:41:52;7.63;;;7.03;;
12880;SDS011;6508;53.786;9.996;2022-08-05T03:44:21;8.75;;;7.18;;
12880;SDS011;6508;53.786;9.996;2022-08-05T03:46:49;7.15;;;6.47;;
12880;SDS011;6508;53.786;9.996;2022-08-05T03:49:19;6.68;;;6.15;;
12880;SDS011;6508;53.786;9.996;2022-08-05T03:51:59;7.20;;;6.53;;
12880;SDS011;6508;53.786;9.996;2022-08-05T03:54:49;7.18;;;6.50;;
12880;SDS011;6508;53.786;9.996;2022-08-05T03:57:40;7.20;;;6.72;;
12880;SDS011;6508;53.786;9.996;2022-08-05T04:00:11;6.82;;;6.43;;
12880;SDS011;6508;53.786;9.996;2022-08-05T04:02:42;8.15;;;7.38;;
12880;SDS011;6508;53.786;9.996;2022-08-05T04:05:26;7.05;;;6.55;;
12880;SDS011;6508;53.786;9.996;2022-08-05T04:08:00;7.72;;;7.00;;
12880;SDS011;6508;53.786;9.996;2022-08-05T04:10:31;7.75;;;7.05;;
12880;SDS011;6508;53.786;9.996;2022-08-05T04:13:05;10.02;;;6.95;;
12880;SDS011;6508;53.786;9.996;2022-08-05T04:15:34;7.82;;;7.20;;
12880;SDS011;6508;53.786;9.996;2022-08-05T04:18:02;7.28;;;6.75;;
12880;SDS011;6508;53.786;9.996;2022-08-05T04:20:36;7.68;;;7.00;;
12880;SDS011;6508;53.786;9.996;2022-08-05T04:23:07;9.85;;;7.63;;
12880;SDS011;6508;53.786;9.996;2022-08-05T04:25:38;7.93;;;7.30;;
12880;SDS011;6508;53.786;9.996;2022-08-05T04:28:26;8.02;;;7.32;;
12880;SDS011;6508;53.786;9.996;2022-08-05T04:30:57;7.68;;;6.85;;
12880;SDS011;6508;53.786;9.996;2022-08-05T04:33:26;7.00;;;6.50;;
12880;SDS011;6508;53.786;9.996;2022-08-05T04:36:16;8.23;;;7.50;;
12880;SDS011;6508;53.786;9.996;2022-08-05T04:39:03;7.45;;;6.85;;
12880;SDS011;6508;53.786;9.996;2022-08-05T04:41:32;6.43;;;6.00;;
12880;SDS011;6508;53.786;9.996;2022-08-05T04:44:04;7.93;;;7.20;;
12880;SDS011;6508;53.786;9.996;2022-08-05T04:46:35;7.70;;;7.18;;
12880;SDS011;6508;53.786;9.996;2022-08-05T04:49:03;7.28;;;6.70;;
12880;SDS011;6508;53.786;9.996;2022-08-05T04:51:42;8.13;;;7.50;;
12880;SDS011;6508;53.786;9.996;2022-08-05T04:54:10;8.82;;;7.05;;
12880;SDS011;6508;53.786;9.996;2022-08-05T04:56:39;7.90;;;7.40;;
12880;SDS011;6508;53.786;9.996;2022-08-05T04:59:09;7.78;;;7.15;;
12880;SDS011;6508;53.786;9.996;2022-08-05T05:01:49;7.25;;;6.65;;
12880;SDS011;6508;53.786;9.996;2022-08-05T05:04:37;7.53;;;7.03;;
12880;SDS011;6508;53.786;9.996;2022-08-05T05:07:10;7.72;;;7.03;;
12880;SDS011;6508;53.786;9.996;2022-08-05T05:09:41;7.85;;;7.15;;
12880;SDS011;6508;53.786;9.996;2022-08-05T05:12:09;7.60;;;7.00;;
12880;SDS011;6508;53.786;9.996;2022-08-05T05:14:38;8.18;;;7.47;;
12880;SDS011;6508;53.786;9.996;2022-08-05T05:17:15;8.32;;;7.55;;
12880;SDS011;6508;53.786;9.996;2022-08-05T05:19:51;9.63;;;8.63;;
12880;SDS011;6508;53.786;9.996;2022-08-05T05:22:21;9.77;;;7.60;;
12880;SDS011;6508;53.786;9.996;2022-08-05T05:24:52;8.07;;;7.38;;
12880;SDS011;6508;53.786;9.996;2022-08-05T05:27:24;8.20;;;7.50;;
12880;SDS011;6508;53.786;9.996;2022-08-05T05:30:11;8.30;;;7.80;;
12880;SDS011;6508;53.786;9.996;2022-08-05T05:32:54;8.60;;;7.85;;
12880;SDS011;6508;53.786;9.996;2022-08-05T05:35:22;8.20;;;7.60;;
12880;SDS011;6508;53.786;9.996;2022-08-05T05:37:52;8.13;;;7.50;;
12880;SDS011;6508;53.786;9.996;2022-08-05T05:40:27;7.25;;;6.55;;
12880;SDS011;6508;53.786;9.996;2022-08-05T05:42:57;7.75;;;7.03;;
12880;SDS011;6508;53.786;9.996;2022-08-05T05:45:27;7.45;;;6.90;;
12880;SDS011;6508;53.786;9.996;2022-08-05T05:47:56;8.43;;;7.82;;
12880;SDS011;6508;53.786;9.996;2022-08-05T05:50:33;8.00;;;7.45;;
12880;SDS011;6508;53.786;9.996;2022-08-05T05:53:11;8.15;;;7.38;;
12880;SDS011;6508;53.786;9.996;2022-08-05T05:55:48;8.43;;;7.82;;
12880;SDS011;6508;53.786;9.996;2022-08-05T05:58:25;7.72;;;7.22;;
12880;SDS011;6508;53.786;9.996;2022-08-05T06:00:58;8.43;;;7.78;;
12880;SDS011;6508;53.786;9.996;2022-08-05T06:03:38;9.50;;;6.65;;
12880;SDS011;6508;53.786;9.996;2022-08-05T06:06:26;8.35;;;7.45;;
12880;SDS011;6508;53.786;9.996;2022-08-05T06:09:02;7.35;;;6.70;;
12880;SDS011;6508;53.786;9.996;2022-08-05T06:11:30;6.70;;;6.30;;
12880;SDS011;6508;53.786;9.996;2022-08-05T06:13:58;8.10;;;7.50;;
12880;SDS011;6508;53.786;9.996;2022-08-05T06:16:27;7.88;;;7.20;;
12880;SDS011;6508;53.786;9.996;2022-08-05T06:19:03;7.82;;;7.22;;
12880;SDS011;6508;53.786;9.996;2022-08-05T06:21:33;7.85;;;7.15;;
12880;SDS011;6508;53.786;9.996;2022-08-05T06:24:08;7.85;;;7.10;;
12880;SDS011;6508;53.786;9.996;2022-08-05T06:26:37;7.43;;;6.72;;
12880;SDS011;6508;53.786;9.996;2022-08-05T06:29:17;8.80;;;7.50;;
12880;SDS011;6508;53.786;9.996;2022-08-05T06:32:05;8.05;;;7.28;;
12880;SDS011;6508;53.786;9.996;2022-08-05T06:34:52;8.30;;;7.55;;
12880;SDS011;6508;53.786;9.996;2022-08-05T06:37:22;8.02;;;7.43;;
12880;SDS011;6508;53.786;9.996;2022-08-05T06:40:13;16.35;;;15.13;;
12880;SDS011;6508;53.786;9.996;2022-08-05T06:42:47;7.18;;;6.82;;
12880;SDS011;6508;53.786;9.996;2022-08-05T06:45:18;5.93;;;5.63;;
12880;SDS011;6508;53.786;9.996;2022-08-05T06:48:06;7.93;;;7.03;;
12880;SDS011;6508;53.786;9.996;2022-08-05T06:50:54;7.68;;;7.25;;
12880;SDS011;6508;53.786;9.996;2022-08-05T06:53:22;8.63;;;8.02;;
12880;SDS011;6508;53.786;9.996;2022-08-05T06:55:55;9.38;;;8.65;;
12880;SDS011;6508;53.786;9.996;2022-08-05T06:58:24;8.32;;;7.82;;
12880;SDS011;6508;53.786;9.996;2022-08-05T07:01:02;8.73;;;8.13;;
12880;SDS011;6508;53.786;9.996;2022-08-05T07:03:32;8.80;;;8.20;;
12880;SDS011;6508;53.786;9.996;2022-08-05T07:06:00;9.00;;;8.35;;
12880;SDS011;6508;53.786;9.996;2022-08-05T07:08:40;7.57;;;7.07;;
12880;SDS011;6508;53.786;9.996;2022-08-05T07:11:14;8.02;;;7.45;;
12880;SDS011;6508;53.786;9.996;2022-08-05T07:13:48;8.40;;;7.72;;
12880;SDS011;6508;53.786;9.996;2022-08-05T07:16:46;8.38;;;7.78;;
12880;SDS011;6508;53.786;9.996;2022-08-05T07:19:37;8.05;;;7.55;;
12880;SDS011;6508;53.786;9.996;2022-08-05T07:22:25;8.00;;;7.35;;
12880;SDS011;6508;53.786;9.996;2022-08-05T07:24:56;5.55;;;5.13;;
12880;SDS011;6508;53.786;9.996;2022-08-05T07:27:46;6.25;;;5.78;;
12880;SDS011;6508;53.786;9.996;2022-08-05T07:30:28;6.05;;;5.45;;
12880;SDS011;6508;53.786;9.996;2022-08-05T07:32:58;5.28;;;4.93;;
12880;SDS011;6508;53.786;9.996;2022-08-05T07:35:30;6.82;;;5.03;;
12880;SDS011;6508;53.786;9.996;2022-08-05T07:38:19;5.60;;;5.22;;
12880;SDS011;6508;53.786;9.996;2022-08-05T07:41:01;7.07;;;6.40;;
12880;SDS011;6508;53.786;9.996;2022-08-05T07:43:52;5.35;;;4.82;;
12880;SDS011;6508;53.786;9.996;2022-08-05T07:46:22;5.80;;;5.30;;
12880;SDS011;6508;53.786;9.996;2022-08-05T07:48:52;5.28;;;4.85;;
12880;SDS011;6508;53.786;9.996;2022-08-05T07:51:30;6.45;;;5.22;;
12880;SDS011;6508;53.786;9.996;2022-08-05T07:54:14;6.40;;;5.90;;
12880;SDS011;6508;53.786;9.996;2022-08-05T07:56:44;7.45;;;5.55;;
12880;SDS011;6508;53.786;9.996;2022-08-05T07:59:33;6.40;;;5.90;;
12880;SDS011;6508;53.786;9.996;2022-08-05T08:02:07;5.78;;;5.55;;
12880;SDS011;6508;53.786;9.996;2022-08-05T08:04:46;6.88;;;6.38;;
12880;SDS011;6508;53.786;9.996;2022-08-05T08:07:15;6.80;;;6.32;;
12880;SDS011;6508;53.786;9.996;2022-08-05T08:09:48;7.40;;;6.78;;
12880;SDS011;6508;53.786;9.996;2022-08-05T08:12:19;6.18;;;5.85;;
12880;SDS011;6508;53.786;9.996;2022-08-05T08:15:07;8.05;;;7.53;;
12880;SDS011;6508;53.786;9.996;2022-08-05T08:17:42;9.35;;;8.85;;
12880;SDS011;6508;53.786;9.996;2022-08-05T08:20:18;11.02;;;10.18;;
12880;SDS011;6508;53.786;9.996;2022-08-05T08:23:06;15.07;;;14.35;;
12880;SDS011;6508;53.786;9.996;2022-08-05T08:25:54;19.00;;;18.02;;
12880;SDS011;6508;53.786;9.996;2022-08-05T08:28:28;12.80;;;12.15;;
12880;SDS011;6508;53.786;9.996;2022-08-05T08:31:09;18.17;;;17.27;;
12880;SDS011;6508;53.786;9.996;2022-08-05T08:33:43;22.58;;;21.35;;
12880;SDS011;6508;53.786;9.996;2022-08-05T08:36:17;23.15;;;22.05;;
12880;SDS011;6508;53.786;9.996;2022-08-05T08:39:05;15.75;;;14.98;;
12880;SDS011;6508;53.786;9.996;2022-08-05T08:41:41;16.83;;;15.85;;
12880;SDS011;6508;53.786;9.996;2022-08-05T08:44:24;11.55;;;10.80;;
12880;SDS011;6508;53.786;9.996;2022-08-05T08:47:17;13.40;;;12.75;;
12880;SDS011;6508;53.786;9.996;2022-08-05T08:50:06;10.32;;;9.52;;
12880;SDS011;6508;53.786;9.996;2022-08-05T08:52:55;11.80;;;11.10;;
12880;SDS011;6508;53.786;9.996;2022-08-05T08:55:33;11.02;;;10.52;;
12880;SDS011;6508;53.786;9.996;2022-08-05T08:58:21;19.10;;;18.15;;
12880;SDS011;6508;53.786;9.996;2022-08-05T09:01:09;17.88;;;17.08;;
12880;SDS011;6508;53.786;9.996;2022-08-05T09:03:45;18.98;;;18.13;;
12880;SDS011;6508;53.786;9.996;2022-08-05T09:06:23;15.00;;;14.38;;
12880;SDS011;6508;53.786;9.996;2022-08-05T09:08:56;9.27;;;8.77;;
12880;SDS011;6508;53.786;9.996;2022-08-05T09:11:24;7.90;;;7.47;;
12880;SDS011;6508;53.786;9.996;2022-08-05T09:14:12;8.60;;;8.15;;
12880;SDS011;6508;53.786;9.996;2022-08-05T09:17:00;7.95;;;7.60;;
12880;SDS011;6508;53.786;9.996;2022-08-05T09:19:35;8.07;;;7.68;;
12880;SDS011;6508;53.786;9.996;2022-08-05T09:22:22;5.97;;;5.60;;
12880;SDS011;6508;53.786;9.996;2022-08-05T09:24:58;6.60;;;5.75;;
12880;SDS011;6508;53.786;9.996;2022-08-05T09:27:30;5.72;;;5.43;;
12880;SDS011;6508;53.786;9.996;2022-08-05T09:30:19;5.10;;;4.80;;
12880;SDS011;6508;53.786;9.996;2022-08-05T09:32:49;5.25;;;4.85;;
12880;SDS011;6508;53.786;9.996;2022-08-05T09:35:20;4.93;;;4.63;;
12880;SDS011;6508;53.786;9.996;2022-08-05T09:37:53;4.25;;;4.05;;
12880;SDS011;6508;53.786;9.996;2022-08-05T09:40:42;4.50;;;4.25;;
12880;SDS011;6508;53.786;9.996;2022-08-05T09:43:24;4.88;;;4.57;;
12880;SDS011;6508;53.786;9.996;2022-08-05T09:46:21;4.82;;;4.43;;
12880;SDS011;6508;53.786;9.996;2022-08-05T09:48:53;5.70;;;5.18;;
12880;SDS011;6508;53.786;9.996;2022-08-05T09:51:44;5.90;;;5.40;;
12880;SDS011;6508;53.786;9.996;2022-08-05T09:54:16;9.60;;;8.88;;
12880;SDS011;6508;53.786;9.996;2022-08-05T09:56:54;12.40;;;11.88;;
12880;SDS011;6508;53.786;9.996;2022-08-05T09:59:27;25.40;;;23.85;;
12880;SDS011;6508;53.786;9.996;2022-08-05T10:02:03;28.77;;;27.40;;
12880;SDS011;6508;53.786;9.996;2022-08-05T10:04:35;19.60;;;18.65;;
12880;SDS011;6508;53.786;9.996;2022-08-05T10:07:07;10.25;;;9.80;;
12880;SDS011;6508;53.786;9.996;2022-08-05T10:09:55;8.38;;;7.97;;
12880;SDS011;6508;53.786;9.996;2022-08-05T10:12:41;7.38;;;7.07;;
12880;SDS011;6508;53.786;9.996;2022-08-05T10:15:19;7.78;;;7.18;;
12880;SDS011;6508;53.786;9.996;2022-08-05T10:18:10;7.20;;;6.88;;
12880;SDS011;6508;53.786;9.996;2022-08-05T10:20:42;5.78;;;5.47;;
12880;SDS011;6508;53.786;9.996;2022-08-05T10:23:15;6.82;;;6.53;;
12880;SDS011;6508;53.786;9.996;2022-08-05T10:26:05;5.32;;;5.10;;
12880;SDS011;6508;53.786;9.996;2022-08-05T10:28:40;5.03;;;4.82;;
12880;SDS011;6508;53.786;9.996;2022-08-05T10:31:11;5.20;;;4.90;;
12880;SDS011;6508;53.786;9.996;2022-08-05T10:33:59;4.68;;;4.38;;
12880;SDS011;6508;53.786;9.996;2022-08-05T10:36:27;5.05;;;4.53;;
12880;SDS011;6508;53.786;9.996;2022-08-05T10:38:59;4.75;;;4.45;;
12880;SDS011;6508;53.786;9.996;2022-08-05T10:41:42;4.32;;;4.07;;
12880;SDS011;6508;53.786;9.996;2022-08-05T10:44:16;4.47;;;4.18;;
12880;SDS011;6508;53.786;9.996;2022-08-05T10:46:46;5.10;;;4.80;;
12880;SDS011;6508;53.786;9.996;2022-08-05T10:49:16;5.47;;;5.07;;
12880;SDS011;6508;53.786;9.996;2022-08-05T10:51:53;5.00;;;4.55;;
12880;SDS011;6508;53.786;9.996;2022-08-05T10:57:25;6.15;;;4.65;;
12880;SDS011;6508;53.786;9.996;2022-08-05T11:00:06;5.68;;;5.18;;
12880;SDS011;6508;53.786;9.996;2022-08-05T11:06:05;4.63;;;4.32;;
12880;SDS011;6508;53.786;9.996;2022-08-05T11:11:44;6.15;;;5.65;;
12880;SDS011;6508;53.786;9.996;2022-08-05T11:14:23;6.45;;;5.22;;
12880;SDS011;6508;53.786;9.996;2022-08-05T11:20:40;6.53;;;4.82;;
12880;SDS011;6508;53.786;9.996;2022-08-05T11:26:30;5.78;;;4.90;;
12880;SDS011;6508;53.786;9.996;2022-08-05T11:29:01;5.78;;;5.32;;
12880;SDS011;6508;53.786;9.996;2022-08-05T11:31:43;5.90;;;5.47;;
12880;SDS011;6508;53.786;9.996;2022-08-05T11:34:36;4.90;;;4.40;;
12880;SDS011;6508;53.786;9.996;2022-08-05T11:40:55;5.43;;;4.97;;
12880;SDS011;6508;53.786;9.996;2022-08-05T11:43:40;5.03;;;4.72;;
12880;SDS011;6508;53.786;9.996;2022-08-05T11:46:32;5.72;;;4.93;;
12880;SDS011;6508;53.786;9.996;2022-08-05T11:49:03;4.78;;;4.50;;
12880;SDS011;6508;53.786;9.996;2022-08-05T11:51:35;4.85;;;4.55;;
12880;SDS011;6508;53.786;9.996;2022-08-05T11:54:10;5.90;;;5.18;;
12880;SDS011;6508;53.786;9.996;2022-08-05T11:56:43;5.20;;;4.80;;
12880;SDS011;6508;53.786;9.996;2022-08-05T11:59:18;5.70;;;5.20;;
12880;SDS011;6508;53.786;9.996;2022-08-05T12:01:55;6.47;;;6.07;;
12880;SDS011;6508;53.786;9.996;2022-08-05T12:04:25;6.22;;;5.47;;
12880;SDS011;6508;53.786;9.996;2022-08-05T12:06:58;6.63;;;6.13;;
12880;SDS011;6508;53.786;9.996;2022-08-05T12:09:28;6.95;;;6.45;;
12880;SDS011;6508;53.786;9.996;2022-08-05T12:12:19;7.00;;;6.40;;
12880;SDS011;6508;53.786;9.996;2022-08-05T12:14:51;7.63;;;7.10;;
12880;SDS011;6508;53.786;9.996;2022-08-05T12:17:23;6.90;;;6.53;;
12880;SDS011;6508;53.786;9.996;2022-08-05T12:20:13;6.47;;;5.88;;
12880;SDS011;6508;53.786;9.996;2022-08-05T12:23:06;6.55;;;6.05;;
12880;SDS011;6508;53.786;9.996;2022-08-05T12:25:47;6.72;;;6.13;;
12880;SDS011;6508;53.786;9.996;2022-08-05T12:28:28;6.57;;;6.15;;
12880;SDS011;6508;53.786;9.996;2022-08-05T12:30:57;6.68;;;6.35;;
12880;SDS011;6508;53.786;9.996;2022-08-05T12:33:29;7.15;;;6.75;;
12880;SDS011;6508;53.786;9.996;2022-08-05T12:36:04;7.05;;;6.65;;
12880;SDS011;6508;53.786;9.996;2022-08-05T12:38:35;6.57;;;6.28;;
12880;SDS011;6508;53.786;9.996;2022-08-05T12:41:06;8.32;;;7.95;;
12880;SDS011;6508;53.786;9.996;2022-08-05T12:43:48;7.05;;;6.53;;
12880;SDS011;6508;53.786;9.996;2022-08-05T12:46:21;10.80;;;10.00;;
12880;SDS011;6508;53.786;9.996;2022-08-05T12:48:56;8.25;;;7.85;;
12880;SDS011;6508;53.786;9.996;2022-08-05T12:51:25;10.63;;;9.88;;
12880;SDS011;6508;53.786;9.996;2022-08-05T12:54:17;11.88;;;11.27;;
12880;SDS011;6508;53.786;9.996;2022-08-05T12:56:52;11.82;;;11.23;;
12880;SDS011;6508;53.786;9.996;2022-08-05T12:59:21;8.73;;;8.13;;
12880;SDS011;6508;53.786;9.996;2022-08-05T13:02:10;11.18;;;10.35;;
12880;SDS011;6508;53.786;9.996;2022-08-05T13:04:42;5.95;;;5.63;;
12880;SDS011;6508;53.786;9.996;2022-08-05T13:07:20;5.40;;;5.00;;
12880;SDS011;6508;53.786;9.996;2022-08-05T13:10:09;4.70;;;4.40;;
12880;SDS011;6508;53.786;9.996;2022-08-05T13:12:39;4.43;;;4.13;;
12880;SDS011;6508;53.786;9.996;2022-08-05T13:15:27;4.30;;;4.05;;
12880;SDS011;6508;53.786;9.996;2022-08-05T13:18:15;3.83;;;3.63;;
12880;SDS011;6508;53.786;9.996;2022-08-05T13:20:47;3.55;;;3.40;;
12880;SDS011;6508;53.786;9.996;2022-08-05T13:23:15;3.50;;;3.30;;
12880;SDS011;6508;53.786;9.996;2022-08-05T13:25:48;3.67;;;3.47;;
12880;SDS011;6508;53.786;9.996;2022-08-05T13:28:26;3.72;;;3.53;;
12880;SDS011;6508;53.786;9.996;2022-08-05T13:30:57;3.90;;;3.70;;
12880;SDS011;6508;53.786;9.996;2022-08-05T13:33:39;4.20;;;3.90;;
12880;SDS011;6508;53.786;9.996;2022-08-05T13:36:29;4.03;;;3.80;;
12880;SDS011;6508;53.786;9.996;2022-08-05T13:38:58;3.88;;;3.67;;
12880;SDS011;6508;53.786;9.996;2022-08-05T13:41:34;3.10;;;2.90;;
12880;SDS011;6508;53.786;9.996;2022-08-05T13:44:03;2.90;;;2.80;;
12880;SDS011;6508;53.786;9.996;2022-08-05T13:46:31;3.58;;;3.28;;
12880;SDS011;6508;53.786;9.996;2022-08-05T13:49:19;3.00;;;2.90;;
12880;SDS011;6508;53.786;9.996;2022-08-05T13:51:48;5.32;;;4.82;;
12880;SDS011;6508;53.786;9.996;2022-08-05T13:54:19;4.10;;;3.90;;
12880;SDS011;6508;53.786;9.996;2022-08-05T13:56:50;3.85;;;3.65;;
12880;SDS011;6508;53.786;9.996;2022-08-05T13:59:19;4.40;;;4.10;;
12880;SDS011;6508;53.786;9.996;2022-08-05T14:01:51;3.47;;;3.35;;
12880;SDS011;6508;53.786;9.996;2022-08-05T14:04:25;4.22;;;4.03;;
12880;SDS011;6508;53.786;9.996;2022-08-05T14:07:17;4.50;;;4.20;;
12880;SDS011;6508;53.786;9.996;2022-08-05T14:10:06;4.20;;;4.00;;
12880;SDS011;6508;53.786;9.996;2022-08-05T14:12:36;4.78;;;4.45;;
12880;SDS011;6508;53.786;9.996;2022-08-05T14:15:08;4.60;;;4.30;;
12880;SDS011;6508;53.786;9.996;2022-08-05T14:17:57;4.10;;;3.88;;
12880;SDS011;6508;53.786;9.996;2022-08-05T14:20:26;3.88;;;3.67;;
12880;SDS011;6508;53.786;9.996;2022-08-05T14:22:56;4.40;;;4.10;;
12880;SDS011;6508;53.786;9.996;2022-08-05T14:25:24;4.13;;;3.63;;
12880;SDS011;6508;53.786;9.996;2022-08-05T14:27:55;4.10;;;3.90;;
12880;SDS011;6508;53.786;9.996;2022-08-05T14:30:24;4.70;;;4.30;;
12880;SDS011;6508;53.786;9.996;2022-08-05T14:32:53;4.20;;;3.90;;
12880;SDS011;6508;53.786;9.996;2022-08-05T14:35:22;5.40;;;5.05;;
12880;SDS011;6508;53.786;9.996;2022-08-05T14:38:11;4.93;;;4.63;;
12880;SDS011;6508;53.786;9.996;2022-08-05T14:40:59;5.45;;;5.25;;
12880;SDS011;6508;53.786;9.996;2022-08-05T14:43:32;5.72;;;5.32;;
12880;SDS011;6508;53.786;9.996;2022-08-05T14:46:21;4.90;;;4.60;;
12880;SDS011;6508;53.786;9.996;2022-08-05T14:48:54;4.22;;;4.07;;
12880;SDS011;6508;53.786;9.996;2022-08-05T14:51:24;4.65;;;4.45;;
12880;SDS011;6508;53.786;9.996;2022-08-05T14:53:57;5.10;;;4.80;;
12880;SDS011;6508;53.786;9.996;2022-08-05T14:56:45;5.85;;;5.55;;
12880;SDS011;6508;53.786;9.996;2022-08-05T14:59:13;4.80;;;4.43;;
12880;SDS011;6508;53.786;9.996;2022-08-05T15:01:41;4.80;;;4.40;;
12880;SDS011;6508;53.786;9.996;2022-08-05T15:04:14;9.18;;;8.35;;
12880;SDS011;6508;53.786;9.996;2022-08-05T15:06:46;5.40;;;5.10;;
12880;SDS011;6508;53.786;9.996;2022-08-05T15:09:16;5.32;;;5.00;;
12880;SDS011;6508;53.786;9.996;2022-08-05T15:12:05;5.13;;;4.55;;
12880;SDS011;6508;53.786;9.996;2022-08-05T15:14:34;5.60;;;5.20;;
12880;SDS011;6508;53.786;9.996;2022-08-05T15:17:15;10.95;;;9.98;;
12880;SDS011;6508;53.786;9.996;2022-08-05T15:20:03;4.65;;;4.35;;
12880;SDS011;6508;53.786;9.996;2022-08-05T15:22:35;5.40;;;5.10;;
12880;SDS011;6508;53.786;9.996;2022-08-05T15:25:05;5.93;;;5.50;;
12880;SDS011;6508;53.786;9.996;2022-08-05T15:27:39;4.93;;;4.63;;
12880;SDS011;6508;53.786;9.996;2022-08-05T15:30:17;5.28;;;4.97;;
12880;SDS011;6508;53.786;9.996;2022-08-05T15:32:45;4.57;;;4.28;;
12880;SDS011;6508;53.786;9.996;2022-08-05T15:35:13;5.10;;;4.80;;
12880;SDS011;6508;53.786;9.996;2022-08-05T15:37:41;5.50;;;4.90;;
12880;SDS011;6508;53.786;9.996;2022-08-05T15:40:30;8.65;;;6.15;;
12880;SDS011;6508;53.786;9.996;2022-08-05T15:43:18;5.80;;;5.40;;
12880;SDS011;6508;53.786;9.996;2022-08-05T15:45:47;6.30;;;5.70;;
12880;SDS011;6508;53.786;9.996;2022-08-05T15:48:26;5.90;;;5.50;;
12880;SDS011;6508;53.786;9.996;2022-08-05T15:50:55;5.72;;;5.28;;
12880;SDS011;6508;53.786;9.996;2022-08-05T15:53:22;5.45;;;5.25;;
12880;SDS011;6508;53.786;9.996;2022-08-05T15:55:53;6.47;;;6.18;;
12880;SDS011;6508;53.786;9.996;2022-08-05T15:58:30;5.43;;;5.00;;
12880;SDS011;6508;53.786;9.996;2022-08-05T16:01:03;7.40;;;7.07;;
12880;SDS011;6508;53.786;9.996;2022-08-05T16:03:43;8.65;;;8.02;;
12880;SDS011;6508;53.786;9.996;2022-08-05T16:06:16;10.98;;;10.48;;
12880;SDS011;6508;53.786;9.996;2022-08-05T16:08:46;11.75;;;11.05;;
12880;SDS011;6508;53.786;9.996;2022-08-05T16:11:20;17.92;;;17.08;;